PRIVATE WETTERSTATION BILLIGHEIM-ALLFELD                       ZURCK
Wetterdaten: Dienstag, 17.05.2016
Datum Zeit Temp. A. Temp. A. min Temp. A. max Feuchte A. Luftdruck Regen Wind Richtung Richtung Sonnenschein ET Solar Taupunkt Windchill Windben Empfang
17.05.2016 00:00 6,6 C 6,6 C 6,6 C 91 % 1019,9 hPa 0,0 l/m 0,0 km/h (0 Bft) N 0 0 min 0,000 mm 0 W/m 5,2 C 6,6 C 0,0 km/h (0 Bft) 100 %
17.05.2016 00:10 6,6 C 6,6 C 6,6 C 91 % 1019,8 hPa 0,0 l/m 0,0 km/h (0 Bft) N 0 0 min 0,000 mm 0 W/m 5,2 C 6,6 C 0,0 km/h (0 Bft) 99 %
17.05.2016 00:20 6,7 C 6,6 C 6,7 C 91 % 1019,9 hPa 0,0 l/m 0,0 km/h (0 Bft) N 0 0 min 0,000 mm 0 W/m 5,3 C 6,7 C 0,0 km/h (0 Bft) 100 %
17.05.2016 00:30 6,7 C 6,6 C 6,7 C 91 % 1019,9 hPa 0,0 l/m 0,0 km/h (0 Bft) W-SW 247 0 min 0,000 mm 0 W/m 5,3 C 6,7 C 1,6 km/h (1 Bft) 100 %
17.05.2016 00:40 6,6 C 6,6 C 6,7 C 91 % 1020,0 hPa 0,0 l/m 0,0 km/h (0 Bft) W-SW 247 0 min 0,000 mm 0 W/m 5,2 C 6,6 C 3,2 km/h (1 Bft) 100 %
17.05.2016 00:50 6,6 C 6,6 C 6,6 C 91 % 1020,0 hPa 0,0 l/m 0,0 km/h (0 Bft) W-SW 247 0 min 0,000 mm 0 W/m 5,2 C 6,6 C 3,2 km/h (1 Bft) 100 %
17.05.2016 01:00 6,5 C 6,5 C 6,6 C 91 % 1020,0 hPa 0,0 l/m 0,0 km/h (0 Bft) N 0 0 min 0,000 mm 0 W/m 5,1 C 6,5 C 0,0 km/h (0 Bft) 100 %
17.05.2016 01:10 6,4 C 6,4 C 6,5 C 91 % 1020,0 hPa 0,0 l/m 0,0 km/h (0 Bft) N 0 0 min 0,000 mm 0 W/m 5,0 C 6,4 C 0,0 km/h (0 Bft) 100 %
17.05.2016 01:20 6,3 C 6,3 C 6,4 C 91 % 1020,0 hPa 0,0 l/m 0,0 km/h (0 Bft) N 0 0 min 0,000 mm 0 W/m 4,9 C 6,3 C 0,0 km/h (0 Bft) 100 %
17.05.2016 01:30 6,3 C 6,3 C 6,3 C 91 % 1019,9 hPa 0,0 l/m 0,0 km/h (0 Bft) N 0 0 min 0,000 mm 0 W/m 4,9 C 6,3 C 0,0 km/h (0 Bft) 100 %
17.05.2016 01:40 6,2 C 6,2 C 6,3 C 91 % 1020,0 hPa 0,0 l/m 0,0 km/h (0 Bft) W-SW 247 0 min 0,000 mm 0 W/m 4,8 C 6,2 C 1,6 km/h (1 Bft) 100 %
17.05.2016 01:50 6,2 C 6,2 C 6,2 C 91 % 1019,8 hPa 0,0 l/m 0,0 km/h (0 Bft) N 0 0 min 0,000 mm 0 W/m 4,8 C 6,2 C 0,0 km/h (0 Bft) 100 %
17.05.2016 02:00 6,3 C 6,2 C 6,3 C 91 % 1019,8 hPa 0,0 l/m 0,0 km/h (0 Bft) W-SW 247 0 min 0,000 mm 0 W/m 4,9 C 6,3 C 3,2 km/h (1 Bft) 100 %
17.05.2016 02:10 6,3 C 6,3 C 6,3 C 91 % 1019,8 hPa 0,0 l/m 0,0 km/h (0 Bft) W-SW 247 0 min 0,000 mm 0 W/m 4,9 C 6,3 C 1,6 km/h (1 Bft) 99 %
17.05.2016 02:20 6,2 C 6,2 C 6,3 C 91 % 1019,7 hPa 0,0 l/m 0,0 km/h (0 Bft) W-SW 247 0 min 0,000 mm 0 W/m 4,8 C 6,2 C 4,8 km/h (1 Bft) 100 %
17.05.2016 02:30 6,3 C 6,2 C 6,3 C 91 % 1019,6 hPa 0,0 l/m 1,6 km/h (1 Bft) W-SW 247 0 min 0,000 mm 0 W/m 4,9 C 6,3 C 4,8 km/h (1 Bft) 100 %
17.05.2016 02:40 6,3 C 6,2 C 6,3 C 91 % 1019,6 hPa 0,0 l/m 0,0 km/h (0 Bft) N 0 0 min 0,000 mm 0 W/m 4,9 C 6,3 C 0,0 km/h (0 Bft) 100 %
17.05.2016 02:50 6,3 C 6,3 C 6,3 C 91 % 1019,7 hPa 0,0 l/m 0,0 km/h (0 Bft) N 0 0 min 0,000 mm 0 W/m 4,9 C 6,3 C 0,0 km/h (0 Bft) 100 %
17.05.2016 03:00 6,3 C 6,3 C 6,3 C 91 % 1019,6 hPa 0,0 l/m 0,0 km/h (0 Bft) N 0 0 min 0,000 mm 0 W/m 4,9 C 6,3 C 0,0 km/h (0 Bft) 100 %
17.05.2016 03:10 6,3 C 6,3 C 6,3 C 91 % 1019,6 hPa 0,0 l/m 0,0 km/h (0 Bft) N 0 0 min 0,000 mm 0 W/m 4,9 C 6,3 C 0,0 km/h (0 Bft) 100 %
17.05.2016 03:20 6,2 C 6,2 C 6,3 C 91 % 1019,5 hPa 0,0 l/m 0,0 km/h (0 Bft) N 0 0 min 0,000 mm 0 W/m 4,8 C 6,2 C 0,0 km/h (0 Bft) 100 %
17.05.2016 03:30 6,2 C 6,2 C 6,3 C 91 % 1019,5 hPa 0,0 l/m 0,0 km/h (0 Bft) N 0 0 min 0,000 mm 0 W/m 4,8 C 6,2 C 0,0 km/h (0 Bft) 100 %
17.05.2016 03:40 6,2 C 6,2 C 6,3 C 91 % 1019,4 hPa 0,0 l/m 0,0 km/h (0 Bft) N 0 0 min 0,000 mm 0 W/m 4,8 C 6,2 C 0,0 km/h (0 Bft) 100 %
17.05.2016 03:50 6,1 C 6,1 C 6,2 C 91 % 1019,3 hPa 0,0 l/m 0,0 km/h (0 Bft) N 0 0 min 0,000 mm 0 W/m 4,7 C 6,1 C 0,0 km/h (0 Bft) 100 %
17.05.2016 04:00 6,1 C 6,1 C 6,1 C 91 % 1019,2 hPa 0,0 l/m 0,0 km/h (0 Bft) SW 225 0 min 0,000 mm 0 W/m 4,7 C 6,1 C 3,2 km/h (1 Bft) 100 %
17.05.2016 04:10 6,1 C 6,1 C 6,1 C 91 % 1019,1 hPa 0,0 l/m 0,0 km/h (0 Bft) N 0 0 min 0,000 mm 0 W/m 4,7 C 6,1 C 0,0 km/h (0 Bft) 90 %
17.05.2016 04:20 6,1 C 6,1 C 6,1 C 91 % 1019,1 hPa 0,0 l/m 0,0 km/h (0 Bft) N 0 0 min 0,000 mm 0 W/m 4,7 C 6,1 C 0,0 km/h (0 Bft) 100 %
17.05.2016 04:30 6,0 C 6,0 C 6,1 C 91 % 1019,1 hPa 0,0 l/m 0,0 km/h (0 Bft) N 0 0 min 0,000 mm 0 W/m 4,6 C 6,0 C 0,0 km/h (0 Bft) 98 %
17.05.2016 04:40 5,9 C 5,9 C 6,1 C 91 % 1019,2 hPa 0,0 l/m 0,0 km/h (0 Bft) SW 225 0 min 0,000 mm 0 W/m 4,5 C 5,9 C 1,6 km/h (1 Bft) 100 %
17.05.2016 04:50 5,8 C 5,8 C 5,9 C 91 % 1019,1 hPa 0,0 l/m 1,6 km/h (1 Bft) SW 225 0 min 0,000 mm 0 W/m 4,4 C 5,8 C 4,8 km/h (1 Bft) 100 %
17.05.2016 05:00 5,8 C 5,8 C 5,8 C 91 % 1019,0 hPa 0,0 l/m 1,6 km/h (1 Bft) SW 225 0 min 0,000 mm 0 W/m 4,4 C 5,8 C 4,8 km/h (1 Bft) 100 %
17.05.2016 05:10 5,9 C 5,8 C 5,9 C 91 % 1019,0 hPa 0,0 l/m 1,6 km/h (1 Bft) S-SO 157 0 min 0,000 mm 0 W/m 4,5 C 5,9 C 6,4 km/h (2 Bft) 99 %
17.05.2016 05:20 6,1 C 5,9 C 6,1 C 91 % 1019,1 hPa 0,0 l/m 1,6 km/h (1 Bft) S-SO 157 0 min 0,000 mm 0 W/m 4,7 C 6,1 C 6,4 km/h (2 Bft) 100 %
17.05.2016 05:30 6,1 C 6,1 C 6,2 C 91 % 1019,1 hPa 0,0 l/m 0,0 km/h (0 Bft) N 0 0 min 0,000 mm 0 W/m 4,7 C 6,1 C 0,0 km/h (0 Bft) 99 %
17.05.2016 05:40 6,2 C 6,1 C 6,2 C 91 % 1018,9 hPa 0,0 l/m 0,0 km/h (0 Bft) S-SO 157 0 min 0,000 mm 0 W/m 4,8 C 6,2 C 3,2 km/h (1 Bft) 99 %
17.05.2016 05:50 6,3 C 6,2 C 6,3 C 91 % 1018,9 hPa 0,0 l/m 0,0 km/h (0 Bft) S-SO 157 0 min 0,000 mm 0 W/m 4,9 C 6,3 C 1,6 km/h (1 Bft) 99 %
17.05.2016 06:00 6,3 C 6,3 C 6,3 C 91 % 1019,0 hPa 0,0 l/m 0,0 km/h (0 Bft) S-SO 157 0 min 0,000 mm 0 W/m 4,9 C 6,3 C 3,2 km/h (1 Bft) 98 %
17.05.2016 06:10 6,4 C 6,3 C 6,4 C 91 % 1019,0 hPa 0,0 l/m 0,0 km/h (0 Bft) S-SO 157 0 min 0,000 mm 0 W/m 5,0 C 6,4 C 6,4 km/h (2 Bft) 98 %
17.05.2016 06:20 6,6 C 6,4 C 6,6 C 91 % 1019,0 hPa 0,0 l/m 0,0 km/h (0 Bft) W-SW 247 0 min 0,000 mm 0 W/m 5,2 C 6,6 C 3,2 km/h (1 Bft) 98 %
17.05.2016 06:30 6,6 C 6,6 C 6,6 C 91 % 1018,9 hPa 0,0 l/m 0,0 km/h (0 Bft) W-SW 247 0 min 0,000 mm 0 W/m 5,2 C 6,6 C 1,6 km/h (1 Bft) 98 %
17.05.2016 06:40 6,7 C 6,6 C 6,7 C 91 % 1018,9 hPa 0,0 l/m 0,0 km/h (0 Bft) W-SW 247 0 min 0,000 mm 0 W/m 5,3 C 6,7 C 3,2 km/h (1 Bft) 98 %
17.05.2016 06:50 6,8 C 6,7 C 6,8 C 91 % 1018,8 hPa 0,0 l/m 0,0 km/h (0 Bft) W-SW 247 0 min 0,000 mm 14 W/m 5,4 C 6,8 C 6,4 km/h (2 Bft) 96 %
17.05.2016 07:00 6,9 C 6,8 C 6,9 C 91 % 1018,8 hPa 0,0 l/m 1,6 km/h (1 Bft) W-SW 247 0 min 0,000 mm 37 W/m 5,5 C 6,9 C 8,0 km/h (2 Bft) 97 %
17.05.2016 07:10 7,0 C 6,9 C 7,0 C 91 % 1018,8 hPa 0,0 l/m 0,0 km/h (0 Bft) W-SW 247 0 min 0,000 mm 40 W/m 5,6 C 7,0 C 6,4 km/h (2 Bft) 97 %
17.05.2016 07:20 7,1 C 7,0 C 7,1 C 91 % 1018,9 hPa 0,0 l/m 0,0 km/h (0 Bft) SW 225 0 min 0,000 mm 40 W/m 5,7 C 7,1 C 1,6 km/h (1 Bft) 97 %
17.05.2016 07:30 7,3 C 7,1 C 7,3 C 91 % 1018,9 hPa 0,0 l/m 1,6 km/h (1 Bft) SW 225 0 min 0,000 mm 35 W/m 5,9 C 7,3 C 4,8 km/h (1 Bft) 98 %
17.05.2016 07:40 7,3 C 7,2 C 7,3 C 91 % 1018,9 hPa 0,0 l/m 0,0 km/h (0 Bft) W-SW 247 0 min 0,000 mm 32 W/m 5,9 C 7,3 C 6,4 km/h (2 Bft) 96 %
17.05.2016 07:50 7,3 C 7,3 C 7,3 C 91 % 1019,1 hPa 0,0 l/m 1,6 km/h (1 Bft) W 270 0 min 0,000 mm 30 W/m 5,9 C 7,3 C 6,4 km/h (2 Bft) 98 %
17.05.2016 08:00 7,3 C 7,2 C 7,3 C 91 % 1019,2 hPa 0,0 l/m 0,0 km/h (0 Bft) W-SW 247 0 min 0,025 mm 123 W/m 5,9 C 7,3 C 6,4 km/h (2 Bft) 98 %
17.05.2016 08:10 7,5 C 7,3 C 7,5 C 91 % 1019,3 hPa 0,0 l/m 0,0 km/h (0 Bft) W-SW 247 0 min 0,000 mm 77 W/m 6,1 C 7,5 C 6,4 km/h (2 Bft) 98 %
17.05.2016 08:20 7,7 C 7,5 C 7,7 C 91 % 1019,3 hPa 0,0 l/m 0,0 km/h (0 Bft) W-SW 247 10 min 0,000 mm 193 W/m 6,3 C 7,7 C 6,4 km/h (2 Bft) 98 %
17.05.2016 08:30 8,0 C 7,7 C 8,0 C 91 % 1019,4 hPa 0,0 l/m 1,6 km/h (1 Bft) W 270 10 min 0,000 mm 178 W/m 6,6 C 8,0 C 6,4 km/h (2 Bft) 98 %
17.05.2016 08:40 8,0 C 7,9 C 8,0 C 91 % 1019,4 hPa 0,0 l/m 0,0 km/h (0 Bft) W 270 10 min 0,000 mm 258 W/m 6,6 C 8,0 C 4,8 km/h (1 Bft) 98 %
17.05.2016 08:50 8,8 C 8,0 C 8,8 C 91 % 1019,5 hPa 0,0 l/m 0,0 km/h (0 Bft) W 270 10 min 0,000 mm 589 W/m 7,4 C 8,8 C 6,4 km/h (2 Bft) 97 %
17.05.2016 09:00 9,3 C 8,8 C 9,3 C 90 % 1019,4 hPa 0,0 l/m 0,0 km/h (0 Bft) SW 225 10 min 0,102 mm 582 W/m 7,7 C 9,3 C 6,4 km/h (2 Bft) 98 %
17.05.2016 09:10 10,2 C 9,3 C 10,2 C 87 % 1019,5 hPa 0,0 l/m 0,0 km/h (0 Bft) S-SW 202 10 min 0,000 mm 629 W/m 8,1 C 10,2 C 8,0 km/h (2 Bft) 97 %
17.05.2016 09:20 10,3 C 10,2 C 10,6 C 83 % 1019,4 hPa 0,0 l/m 1,6 km/h (1 Bft) S-SW 202 10 min 0,000 mm 596 W/m 7,5 C 10,3 C 8,0 km/h (2 Bft) 97 %
17.05.2016 09:30 10,0 C 10,0 C 10,3 C 84 % 1019,4 hPa 0,0 l/m 1,6 km/h (1 Bft) S-SO 157 10 min 0,000 mm 343 W/m 7,4 C 10,0 C 8,0 km/h (2 Bft) 97 %
17.05.2016 09:40 10,0 C 9,9 C 10,0 C 85 % 1019,5 hPa 0,0 l/m 1,6 km/h (1 Bft) S-SW 202 10 min 0,000 mm 329 W/m 7,6 C 10,0 C 14,5 km/h (3 Bft) 98 %
17.05.2016 09:50 10,3 C 10,0 C 10,3 C 85 % 1019,5 hPa 0,0 l/m 4,8 km/h (1 Bft) S-SW 202 10 min 0,000 mm 448 W/m 7,9 C 10,3 C 14,5 km/h (3 Bft) 98 %
17.05.2016 10:00 10,7 C 10,3 C 10,7 C 83 % 1019,4 hPa 0,0 l/m 1,6 km/h (1 Bft) S-SW 202 10 min 0,178 mm 381 W/m 7,9 C 10,7 C 11,3 km/h (2 Bft) 98 %
17.05.2016 10:10 10,6 C 10,6 C 10,7 C 79 % 1019,4 hPa 0,0 l/m 1,6 km/h (1 Bft) S 180 10 min 0,000 mm 392 W/m 7,1 C 10,6 C 9,7 km/h (2 Bft) 98 %
17.05.2016 10:20 10,7 C 10,6 C 10,7 C 81 % 1019,5 hPa 0,0 l/m 1,6 km/h (1 Bft) S-SO 157 10 min 0,000 mm 376 W/m 7,6 C 10,7 C 9,7 km/h (2 Bft) 97 %
17.05.2016 10:30 10,9 C 10,7 C 10,9 C 81 % 1019,3 hPa 0,0 l/m 1,6 km/h (1 Bft) S-SO 157 10 min 0,000 mm 575 W/m 7,8 C 10,9 C 14,5 km/h (3 Bft) 98 %
17.05.2016 10:40 11,7 C 10,9 C 11,7 C 79 % 1019,3 hPa 0,0 l/m 3,2 km/h (1 Bft) S-SW 202 10 min 0,000 mm 831 W/m 8,2 C 11,7 C 12,9 km/h (3 Bft) 97 %
17.05.2016 10:50 12,2 C 11,7 C 12,2 C 72 % 1019,3 hPa 0,0 l/m 4,8 km/h (1 Bft) S 180 10 min 0,000 mm 817 W/m 7,3 C 12,2 C 17,7 km/h (3 Bft) 98 %
17.05.2016 11:00 12,5 C 12,2 C 12,5 C 73 % 1019,1 hPa 0,0 l/m 1,6 km/h (1 Bft) S-SW 202 10 min 0,254 mm 809 W/m 7,8 C 12,5 C 17,7 km/h (3 Bft) 98 %
17.05.2016 11:10 12,9 C 12,5 C 12,9 C 72 % 1019,1 hPa 0,0 l/m 4,8 km/h (1 Bft) S-SW 202 10 min 0,000 mm 861 W/m 8,0 C 12,9 C 14,5 km/h (3 Bft) 97 %
17.05.2016 11:20 12,4 C 12,4 C 12,9 C 70 % 1019,1 hPa 0,0 l/m 4,8 km/h (1 Bft) S-SW 202 10 min 0,000 mm 301 W/m 7,1 C 12,4 C 22,5 km/h (4 Bft) 98 %
17.05.2016 11:30 12,0 C 12,0 C 12,4 C 70 % 1019,2 hPa 0,0 l/m 3,2 km/h (1 Bft) SW 225 10 min 0,000 mm 227 W/m 6,7 C 12,0 C 14,5 km/h (3 Bft) 97 %
17.05.2016 11:40 11,7 C 11,7 C 12,0 C 70 % 1019,1 hPa 0,0 l/m 6,4 km/h (2 Bft) S-SW 202 10 min 0,000 mm 366 W/m 6,4 C 11,7 C 16,1 km/h (3 Bft) 98 %
17.05.2016 11:50 11,9 C 11,7 C 11,9 C 71 % 1019,0 hPa 0,0 l/m 6,4 km/h (2 Bft) S-SW 202 10 min 0,000 mm 501 W/m 6,8 C 11,9 C 19,3 km/h (3 Bft) 97 %
17.05.2016 12:00 12,1 C 11,9 C 12,1 C 66 % 1019,0 hPa 0,0 l/m 8,0 km/h (2 Bft) S-SW 202 10 min 0,178 mm 352 W/m 5,9 C 11,1 C 20,9 km/h (4 Bft) 98 %
17.05.2016 12:10 12,3 C 12,1 C 12,3 C 60 % 1019,1 hPa 0,0 l/m 3,2 km/h (1 Bft) W-NW 292 10 min 0,000 mm 364 W/m 4,8 C 12,3 C 14,5 km/h (3 Bft) 98 %
17.05.2016 12:20 12,6 C 12,3 C 12,6 C 56 % 1019,0 hPa 0,0 l/m 1,6 km/h (1 Bft) NW 315 10 min 0,000 mm 353 W/m 4,1 C 12,6 C 14,5 km/h (3 Bft) 98 %
17.05.2016 12:30 12,7 C 12,6 C 12,7 C 60 % 1019,0 hPa 0,0 l/m 1,6 km/h (1 Bft) W 270 10 min 0,000 mm 279 W/m 5,1 C 12,7 C 9,7 km/h (2 Bft) 97 %
17.05.2016 12:40 12,7 C 12,7 C 12,8 C 56 % 1019,1 hPa 0,0 l/m 3,2 km/h (1 Bft) W 270 10 min 0,000 mm 162 W/m 4,2 C 12,7 C 14,5 km/h (3 Bft) 98 %
17.05.2016 12:50 12,4 C 12,4 C 12,7 C 57 % 1019,0 hPa 0,0 l/m 4,8 km/h (1 Bft) W 270 10 min 0,000 mm 171 W/m 4,1 C 12,4 C 16,1 km/h (3 Bft) 98 %
17.05.2016 13:00 12,4 C 12,4 C 12,4 C 57 % 1019,0 hPa 0,0 l/m 3,2 km/h (1 Bft) W-SW 247 10 min 0,127 mm 274 W/m 4,1 C 12,4 C 19,3 km/h (3 Bft) 97 %
17.05.2016 13:10 12,6 C 12,4 C 12,6 C 57 % 1019,0 hPa 0,0 l/m 3,2 km/h (1 Bft) W-NW 292 10 min 0,000 mm 392 W/m 4,3 C 12,6 C 9,7 km/h (2 Bft) 97 %
17.05.2016 13:20 13,1 C 12,6 C 13,1 C 53 % 1019,0 hPa 0,0 l/m 3,2 km/h (1 Bft) W 270 10 min 0,000 mm 476 W/m 3,7 C 13,1 C 14,5 km/h (3 Bft) 98 %
17.05.2016 13:30 13,4 C 13,1 C 13,5 C 56 % 1018,9 hPa 0,0 l/m 1,6 km/h (1 Bft) S-SW 202 10 min 0,000 mm 455 W/m 4,8 C 13,4 C 11,3 km/h (2 Bft) 98 %
17.05.2016 13:40 13,5 C 13,4 C 13,5 C 60 % 1018,9 hPa 0,0 l/m 1,6 km/h (1 Bft) W-SW 247 10 min 0,000 mm 327 W/m 5,9 C 13,5 C 16,1 km/h (3 Bft) 98 %
17.05.2016 13:50 13,2 C 13,2 C 13,5 C 60 % 1018,9 hPa 0,0 l/m 6,4 km/h (2 Bft) SW 225 10 min 0,000 mm 294 W/m 5,6 C 13,2 C 19,3 km/h (3 Bft) 97 %
17.05.2016 14:00 13,0 C 13,0 C 13,2 C 61 % 1018,9 hPa 0,0 l/m 3,2 km/h (1 Bft) SW 225 10 min 0,178 mm 227 W/m 5,7 C 13,0 C 20,9 km/h (4 Bft) 98 %
17.05.2016 14:10 13,0 C 12,9 C 13,0 C 56 % 1018,8 hPa 0,0 l/m 3,2 km/h (1 Bft) W 270 10 min 0,000 mm 343 W/m 4,4 C 13,0 C 14,5 km/h (3 Bft) 97 %
17.05.2016 14:20 13,1 C 13,0 C 13,1 C 56 % 1018,7 hPa 0,0 l/m 4,8 km/h (1 Bft) W 270 10 min 0,000 mm 378 W/m 4,5 C 13,1 C 20,9 km/h (4 Bft) 97 %
17.05.2016 14:30 13,4 C 13,1 C 13,4 C 56 % 1018,7 hPa 0,0 l/m 3,2 km/h (1 Bft) W 270 10 min 0,000 mm 355 W/m 4,8 C 13,4 C 11,3 km/h (2 Bft) 97 %
17.05.2016 14:40 13,3 C 13,3 C 13,4 C 55 % 1018,7 hPa 0,0 l/m 4,8 km/h (1 Bft) S-SW 202 10 min 0,000 mm 346 W/m 4,5 C 13,3 C 12,9 km/h (3 Bft) 98 %
17.05.2016 14:50 13,4 C 13,2 C 13,4 C 61 % 1018,6 hPa 0,0 l/m 1,6 km/h (1 Bft) SW 225 10 min 0,000 mm 478 W/m 6,0 C 13,4 C 11,3 km/h (2 Bft) 99 %
17.05.2016 15:00 13,7 C 13,4 C 13,7 C 55 % 1018,6 hPa 0,0 l/m 3,2 km/h (1 Bft) S-SW 202 10 min 0,203 mm 559 W/m 4,8 C 13,7 C 16,1 km/h (3 Bft) 100 %
17.05.2016 15:10 14,1 C 13,8 C 14,1 C 56 % 1018,4 hPa 0,0 l/m 4,8 km/h (1 Bft) W-SW 247 10 min 0,000 mm 893 W/m 5,5 C 14,1 C 17,7 km/h (3 Bft) 100 %
17.05.2016 15:20 14,4 C 14,1 C 14,4 C 58 % 1018,4 hPa 0,0 l/m 3,2 km/h (1 Bft) SW 225 10 min 0,000 mm 388 W/m 6,2 C 14,4 C 17,7 km/h (3 Bft) 100 %
17.05.2016 15:30 14,3 C 14,3 C 14,4 C 51 % 1018,3 hPa 0,0 l/m 4,8 km/h (1 Bft) W 270 10 min 0,000 mm 371 W/m 4,3 C 14,3 C 17,7 km/h (3 Bft) 100 %
17.05.2016 15:40 14,1 C 14,1 C 14,3 C 54 % 1018,3 hPa 0,0 l/m 4,8 km/h (1 Bft) W 270 10 min 0,000 mm 383 W/m 4,9 C 14,1 C 19,3 km/h (3 Bft) 99 %
17.05.2016 15:50 13,9 C 13,8 C 14,1 C 56 % 1018,3 hPa 0,0 l/m 4,8 km/h (1 Bft) SW 225 10 min 0,000 mm 425 W/m 5,3 C 13,9 C 20,9 km/h (4 Bft) 100 %
17.05.2016 16:00 14,0 C 13,8 C 14,0 C 54 % 1018,3 hPa 0,0 l/m 3,2 km/h (1 Bft) W 270 10 min 0,229 mm 388 W/m 4,8 C 14,0 C 17,7 km/h (3 Bft) 99 %
17.05.2016 16:10 14,1 C 13,9 C 14,1 C 56 % 1018,1 hPa 0,0 l/m 4,8 km/h (1 Bft) W 270 10 min 0,000 mm 397 W/m 5,5 C 14,1 C 17,7 km/h (3 Bft) 100 %
17.05.2016 16:20 14,2 C 14,1 C 14,2 C 56 % 1018,0 hPa 0,0 l/m 4,8 km/h (1 Bft) S-SW 202 10 min 0,000 mm 471 W/m 5,6 C 14,2 C 17,7 km/h (3 Bft) 99 %
17.05.2016 16:30 14,1 C 14,1 C 14,2 C 54 % 1017,9 hPa 0,0 l/m 1,6 km/h (1 Bft) W 270 10 min 0,000 mm 302 W/m 4,9 C 14,1 C 9,7 km/h (2 Bft) 100 %
17.05.2016 16:40 13,9 C 13,9 C 14,1 C 52 % 1017,8 hPa 0,0 l/m 6,4 km/h (2 Bft) SW 225 10 min 0,000 mm 246 W/m 4,2 C 13,9 C 17,7 km/h (3 Bft) 100 %
17.05.2016 16:50 13,9 C 13,8 C 13,9 C 58 % 1017,7 hPa 0,0 l/m 1,6 km/h (1 Bft) W 270 10 min 0,000 mm 246 W/m 5,8 C 13,9 C 11,3 km/h (2 Bft) 99 %
17.05.2016 17:00 14,1 C 13,9 C 14,1 C 54 % 1017,8 hPa 0,0 l/m 3,2 km/h (1 Bft) W 270 10 min 0,178 mm 248 W/m 4,9 C 14,1 C 12,9 km/h (3 Bft) 100 %
17.05.2016 17:10 14,1 C 14,0 C 14,1 C 55 % 1017,8 hPa 0,0 l/m 4,8 km/h (1 Bft) W 270 10 min 0,000 mm 257 W/m 5,2 C 14,1 C 16,1 km/h (3 Bft) 100 %
17.05.2016 17:20 14,2 C 14,1 C 14,2 C 52 % 1017,7 hPa 0,0 l/m 3,2 km/h (1 Bft) W 270 10 min 0,000 mm 281 W/m 4,5 C 14,2 C 11,3 km/h (2 Bft) 100 %
17.05.2016 17:30 14,3 C 14,2 C 14,3 C 52 % 1017,7 hPa 0,0 l/m 3,2 km/h (1 Bft) W-NW 292 10 min 0,000 mm 264 W/m 4,6 C 14,3 C 17,7 km/h (3 Bft) 100 %
17.05.2016 17:40 14,1 C 14,1 C 14,3 C 56 % 1017,6 hPa 0,0 l/m 6,4 km/h (2 Bft) W-NW 292 10 min 0,000 mm 190 W/m 5,5 C 14,1 C 16,1 km/h (3 Bft) 100 %
17.05.2016 17:50 13,8 C 13,8 C 14,1 C 53 % 1017,5 hPa 0,0 l/m 6,4 km/h (2 Bft) S-SW 202 10 min 0,000 mm 209 W/m 4,4 C 13,8 C 20,9 km/h (4 Bft) 100 %
17.05.2016 18:00 13,9 C 13,8 C 13,9 C 53 % 1017,4 hPa 0,0 l/m 3,2 km/h (1 Bft) W-NW 292 10 min 0,152 mm 241 W/m 4,5 C 13,9 C 11,3 km/h (2 Bft) 100 %
17.05.2016 18:10 14,1 C 13,9 C 14,1 C 55 % 1017,4 hPa 0,0 l/m 1,6 km/h (1 Bft) W 270 10 min 0,000 mm 199 W/m 5,2 C 14,1 C 9,7 km/h (2 Bft) 100 %
17.05.2016 18:20 13,9 C 13,9 C 14,1 C 56 % 1017,3 hPa 0,0 l/m 4,8 km/h (1 Bft) W 270 0 min 0,000 mm 151 W/m 5,3 C 13,9 C 11,3 km/h (2 Bft) 100 %
17.05.2016 18:30 13,8 C 13,8 C 13,8 C 56 % 1017,2 hPa 0,0 l/m 1,6 km/h (1 Bft) W-NW 292 10 min 0,000 mm 160 W/m 5,2 C 13,8 C 9,7 km/h (2 Bft) 100 %
17.05.2016 18:40 13,8 C 13,8 C 13,8 C 56 % 1017,1 hPa 0,0 l/m 3,2 km/h (1 Bft) S-SW 202 0 min 0,000 mm 149 W/m 5,2 C 13,8 C 9,7 km/h (2 Bft) 100 %
17.05.2016 18:50 13,8 C 13,7 C 13,8 C 59 % 1017,1 hPa 0,0 l/m 0,0 km/h (0 Bft) S-SW 202 0 min 0,000 mm 137 W/m 5,9 C 13,8 C 1,6 km/h (1 Bft) 100 %
17.05.2016 19:00 13,6 C 13,6 C 13,8 C 58 % 1016,9 hPa 0,0 l/m 1,6 km/h (1 Bft) W-NW 292 0 min 0,076 mm 104 W/m 5,5 C 13,6 C 6,4 km/h (2 Bft) 100 %
17.05.2016 19:10 13,4 C 13,4 C 13,6 C 56 % 1016,9 hPa 0,0 l/m 1,6 km/h (1 Bft) S-SW 202 0 min 0,000 mm 105 W/m 4,8 C 13,4 C 9,7 km/h (2 Bft) 100 %
17.05.2016 19:20 13,3 C 13,3 C 13,4 C 57 % 1016,9 hPa 0,0 l/m 0,0 km/h (0 Bft) SW 225 0 min 0,000 mm 107 W/m 5,0 C 13,3 C 1,6 km/h (1 Bft) 100 %
17.05.2016 19:30 13,3 C 13,3 C 13,3 C 60 % 1016,9 hPa 0,0 l/m 1,6 km/h (1 Bft) S 180 0 min 0,000 mm 105 W/m 5,7 C 13,3 C 11,3 km/h (2 Bft) 100 %
17.05.2016 19:40 13,3 C 13,3 C 13,3 C 58 % 1016,9 hPa 0,0 l/m 4,8 km/h (1 Bft) SW 225 0 min 0,000 mm 77 W/m 5,2 C 13,3 C 11,3 km/h (2 Bft) 100 %
17.05.2016 19:50 12,8 C 12,8 C 13,3 C 57 % 1016,9 hPa 0,0 l/m 4,8 km/h (1 Bft) S-SW 202 0 min 0,000 mm 35 W/m 4,5 C 12,8 C 12,9 km/h (3 Bft) 100 %
17.05.2016 20:00 12,6 C 12,6 C 12,8 C 60 % 1016,9 hPa 0,0 l/m 1,6 km/h (1 Bft) W-SW 247 0 min 0,051 mm 28 W/m 5,0 C 12,6 C 6,4 km/h (2 Bft) 100 %
17.05.2016 20:10 12,4 C 12,4 C 12,6 C 60 % 1016,9 hPa 0,0 l/m 1,6 km/h (1 Bft) W-SW 247 0 min 0,000 mm 25 W/m 4,9 C 12,4 C 8,0 km/h (2 Bft) 100 %
17.05.2016 20:20 12,2 C 12,2 C 12,4 C 64 % 1016,8 hPa 0,0 l/m 0,0 km/h (0 Bft) W-SW 247 0 min 0,000 mm 18 W/m 5,6 C 12,2 C 1,6 km/h (1 Bft) 100 %
17.05.2016 20:30 11,8 C 11,8 C 12,2 C 66 % 1016,8 hPa 0,0 l/m 0,0 km/h (0 Bft) W-SW 247 0 min 0,000 mm 14 W/m 5,7 C 11,8 C 1,6 km/h (1 Bft) 100 %
17.05.2016 20:40 11,4 C 11,4 C 11,8 C 65 % 1016,8 hPa 0,0 l/m 0,0 km/h (0 Bft) N 0 0 min 0,000 mm 16 W/m 5,1 C 11,4 C 0,0 km/h (0 Bft) 100 %
17.05.2016 20:50 11,1 C 11,1 C 11,4 C 65 % 1016,8 hPa 0,0 l/m 0,0 km/h (0 Bft) W-SW 247 0 min 0,000 mm 0 W/m 4,8 C 11,1 C 4,8 km/h (1 Bft) 100 %
17.05.2016 21:00 10,8 C 10,8 C 11,1 C 65 % 1016,8 hPa 0,0 l/m 0,0 km/h (0 Bft) W-SW 247 0 min 0,000 mm 7 W/m 4,5 C 10,8 C 1,6 km/h (1 Bft) 100 %
17.05.2016 21:10 10,6 C 10,6 C 10,8 C 66 % 1016,7 hPa 0,0 l/m 0,0 km/h (0 Bft) N 0 0 min 0,000 mm 0 W/m 4,5 C 10,6 C 0,0 km/h (0 Bft) 100 %
17.05.2016 21:20 10,2 C 10,2 C 10,5 C 67 % 1016,9 hPa 0,0 l/m 0,0 km/h (0 Bft) W-SW 247 0 min 0,000 mm 0 W/m 4,4 C 10,2 C 3,2 km/h (1 Bft) 100 %
17.05.2016 21:30 9,9 C 9,9 C 10,2 C 68 % 1016,9 hPa 0,0 l/m 0,0 km/h (0 Bft) W-SW 247 0 min 0,000 mm 0 W/m 4,3 C 9,9 C 3,2 km/h (1 Bft) 100 %
17.05.2016 21:40 9,7 C 9,7 C 9,9 C 70 % 1017,0 hPa 0,0 l/m 0,0 km/h (0 Bft) W-SW 247 0 min 0,000 mm 0 W/m 4,5 C 9,7 C 1,6 km/h (1 Bft) 92 %
17.05.2016 21:50 9,6 C 9,6 C 9,9 C 70 % 1016,9 hPa 0,0 l/m 0,0 km/h (0 Bft) W-SW 243 0 min 0,000 mm 0 W/m 4,4 C 9,6 C 0,0 km/h (0 Bft) 100 %
17.05.2016 22:00 9,3 C 9,3 C 9,6 C 71 % 1017,0 hPa 0,0 l/m 0,0 km/h (0 Bft) W-SW 243 0 min 0,025 mm 0 W/m 4,3 C 9,3 C 0,0 km/h (0 Bft) 100 %
17.05.2016 22:10 9,0 C 9,0 C 9,3 C 73 % 1017,1 hPa 0,0 l/m 0,0 km/h (0 Bft) N 0 0 min 0,000 mm 0 W/m 4,4 C 9,0 C 0,0 km/h (0 Bft) 100 %
17.05.2016 22:20 8,7 C 8,7 C 9,0 C 74 % 1017,0 hPa 0,0 l/m 0,0 km/h (0 Bft) N 0 0 min 0,000 mm 0 W/m 4,3 C 8,7 C 0,0 km/h (0 Bft) 100 %
17.05.2016 22:30 8,3 C 8,3 C 8,6 C 76 % 1017,0 hPa 0,0 l/m 0,0 km/h (0 Bft) N 0 0 min 0,000 mm 0 W/m 4,3 C 8,3 C 0,0 km/h (0 Bft) 100 %
17.05.2016 22:40 7,8 C 7,8 C 8,3 C 76 % 1017,0 hPa 0,0 l/m 0,0 km/h (0 Bft) N 0 0 min 0,000 mm 0 W/m 3,8 C 7,8 C 0,0 km/h (0 Bft) 100 %
17.05.2016 22:50 7,6 C 7,6 C 7,8 C 78 % 1017,0 hPa 0,0 l/m 0,0 km/h (0 Bft) N 0 0 min 0,000 mm 0 W/m 4,0 C 7,6 C 0,0 km/h (0 Bft) 100 %
17.05.2016 23:00 7,3 C 7,3 C 7,6 C 79 % 1016,9 hPa 0,0 l/m 0,0 km/h (0 Bft) N 0 0 min 0,025 mm 0 W/m 3,9 C 7,3 C 0,0 km/h (0 Bft) 100 %
17.05.2016 23:10 7,2 C 7,2 C 7,3 C 80 % 1016,9 hPa 0,0 l/m 0,0 km/h (0 Bft) N 0 0 min 0,000 mm 0 W/m 4,0 C 7,2 C 0,0 km/h (0 Bft) 100 %
17.05.2016 23:20 7,1 C 7,1 C 7,2 C 82 % 1016,9 hPa 0,0 l/m 0,0 km/h (0 Bft) W-SW 247 0 min 0,000 mm 0 W/m 4,2 C 7,1 C 3,2 km/h (1 Bft) 100 %
17.05.2016 23:30 6,9 C 6,9 C 7,1 C 83 % 1016,9 hPa 0,0 l/m 0,0 km/h (0 Bft) W-SW 247 0 min 0,000 mm 0 W/m 4,2 C 6,9 C 3,2 km/h (1 Bft) 100 %
17.05.2016 23:40 6,8 C 6,8 C 6,9 C 83 % 1016,8 hPa 0,0 l/m 0,0 km/h (0 Bft) N 0 0 min 0,000 mm 0 W/m 4,1 C 6,8 C 0,0 km/h (0 Bft) 100 %
17.05.2016 23:50 6,7 C 6,7 C 6,8 C 84 % 1016,8 hPa 0,0 l/m 0,0 km/h (0 Bft) N 0 0 min 0,000 mm 0 W/m 4,2 C 6,7 C 0,0 km/h (0 Bft) 100 %
_ Min-Zeit 04:50 04:50 05:00 15:30 21:10 - 00:00 - - - - - 13:20 04:50 00:00 04:10
Minimum _ 5,8 C 5,8 C 5,8 C 51 % 1016,7 hPa - 0,0 km/h (0 Bft) - - - - - 3,7 C 5,8 C 0,0 km/h (0 Bft) 90 %
_ Max-Zeit 15:20 15:30 15:20 00:00 00:40 00:00 12:00 - - 08:20 11:00 15:10 10:40 15:20 11:20 00:00
Maximum _ 14,4 C 14,3 C 14,4 C 91 % 1020,0 hPa 0,0 l/m 8,0 km/h
S-SW (2 Bft)
- - 10 min 0,254 mm 893 W/m 8,2 C 14,4 C 22,5 km/h
S (4 Bft)
100 %
Durchschnitt _ 9,9 C 9,8 C 10,0 C 75 % 1018,5 hPa #0,0 l/m 1,6 km/h (1 Bft) W - #10:10 h #1,981 mm 297 W/m 5,3 C 9,9 C 7,7 km/h (2 Bft) 99 %
PRIVATE WETTERSTATION BILLIGHEIM-ALLFELD - www.neckar-odenwald-wetter.de - Holger Sonntag